sensor_id;sensor_type;location;lat;lon;timestamp;P1;durP1;ratioP1;P2;durP2;ratioP2
50161;SDS011;36061;48.116;11.612;2023-03-01T00:01:40;12.60;;;8.77;;
50161;SDS011;36061;48.116;11.612;2023-03-01T00:04:08;13.07;;;8.07;;
50161;SDS011;36061;48.116;11.612;2023-03-01T00:06:35;16.43;;;8.63;;
50161;SDS011;36061;48.116;11.612;2023-03-01T00:09:02;15.80;;;9.47;;
50161;SDS011;36061;48.116;11.612;2023-03-01T00:11:30;14.47;;;8.87;;
50161;SDS011;36061;48.116;11.612;2023-03-01T00:13:59;14.63;;;9.10;;
50161;SDS011;36061;48.116;11.612;2023-03-01T00:16:28;13.97;;;7.87;;
50161;SDS011;36061;48.116;11.612;2023-03-01T00:18:58;13.10;;;8.77;;
50161;SDS011;36061;48.116;11.612;2023-03-01T00:21:26;15.13;;;9.63;;
50161;SDS011;36061;48.116;11.612;2023-03-01T00:23:53;14.33;;;7.70;;
50161;SDS011;36061;48.116;11.612;2023-03-01T00:26:22;18.23;;;9.10;;
50161;SDS011;36061;48.116;11.612;2023-03-01T00:28:51;16.57;;;9.43;;
50161;SDS011;36061;48.116;11.612;2023-03-01T00:31:19;16.37;;;9.23;;
50161;SDS011;36061;48.116;11.612;2023-03-01T00:33:47;14.23;;;7.90;;
50161;SDS011;36061;48.116;11.612;2023-03-01T00:36:16;12.90;;;8.53;;
50161;SDS011;36061;48.116;11.612;2023-03-01T00:38:44;13.50;;;8.83;;
50161;SDS011;36061;48.116;11.612;2023-03-01T00:41:13;15.20;;;8.87;;
50161;SDS011;36061;48.116;11.612;2023-03-01T00:43:43;15.37;;;8.60;;
50161;SDS011;36061;48.116;11.612;2023-03-01T00:46:12;14.30;;;9.47;;
50161;SDS011;36061;48.116;11.612;2023-03-01T00:48:40;14.80;;;8.80;;
50161;SDS011;36061;48.116;11.612;2023-03-01T00:51:08;15.47;;;8.37;;
50161;SDS011;36061;48.116;11.612;2023-03-01T00:53:38;16.27;;;9.43;;
50161;SDS011;36061;48.116;11.612;2023-03-01T00:56:06;14.90;;;8.60;;
50161;SDS011;36061;48.116;11.612;2023-03-01T00:58:35;13.43;;;8.03;;
50161;SDS011;36061;48.116;11.612;2023-03-01T01:01:06;13.77;;;8.63;;
50161;SDS011;36061;48.116;11.612;2023-03-01T01:03:42;15.50;;;8.83;;
50161;SDS011;36061;48.116;11.612;2023-03-01T01:06:13;17.23;;;9.80;;
50161;SDS011;36061;48.116;11.612;2023-03-01T01:08:42;14.63;;;8.57;;
50161;SDS011;36061;48.116;11.612;2023-03-01T01:11:11;15.83;;;9.43;;
50161;SDS011;36061;48.116;11.612;2023-03-01T01:13:38;14.63;;;8.77;;
50161;SDS011;36061;48.116;11.612;2023-03-01T01:16:06;14.93;;;8.83;;
50161;SDS011;36061;48.116;11.612;2023-03-01T01:18:34;14.03;;;8.23;;
50161;SDS011;36061;48.116;11.612;2023-03-01T01:21:05;13.90;;;8.57;;
50161;SDS011;36061;48.116;11.612;2023-03-01T01:23:34;12.17;;;8.20;;
50161;SDS011;36061;48.116;11.612;2023-03-01T01:26:07;15.90;;;9.00;;
50161;SDS011;36061;48.116;11.612;2023-03-01T01:28:35;11.83;;;7.97;;
50161;SDS011;36061;48.116;11.612;2023-03-01T01:31:03;16.43;;;9.03;;
50161;SDS011;36061;48.116;11.612;2023-03-01T01:33:30;14.90;;;9.37;;
50161;SDS011;36061;48.116;11.612;2023-03-01T01:35:58;12.73;;;8.53;;
50161;SDS011;36061;48.116;11.612;2023-03-01T01:38:25;12.47;;;8.30;;
50161;SDS011;36061;48.116;11.612;2023-03-01T01:40:52;14.53;;;8.80;;
50161;SDS011;36061;48.116;11.612;2023-03-01T01:43:22;16.20;;;9.57;;
50161;SDS011;36061;48.116;11.612;2023-03-01T01:45:52;15.70;;;8.83;;
50161;SDS011;36061;48.116;11.612;2023-03-01T01:48:22;13.37;;;9.27;;
50161;SDS011;36061;48.116;11.612;2023-03-01T01:51:06;15.13;;;8.53;;
50161;SDS011;36061;48.116;11.612;2023-03-01T01:53:38;14.33;;;8.77;;
50161;SDS011;36061;48.116;11.612;2023-03-01T01:56:06;14.80;;;8.53;;
50161;SDS011;36061;48.116;11.612;2023-03-01T01:58:36;13.77;;;8.73;;
50161;SDS011;36061;48.116;11.612;2023-03-01T02:01:05;14.97;;;9.13;;
50161;SDS011;36061;48.116;11.612;2023-03-01T02:03:33;13.83;;;8.83;;
50161;SDS011;36061;48.116;11.612;2023-03-01T02:06:11;13.90;;;9.03;;
50161;SDS011;36061;48.116;11.612;2023-03-01T02:08:41;16.27;;;9.73;;
50161;SDS011;36061;48.116;11.612;2023-03-01T02:11:10;16.50;;;8.23;;
50161;SDS011;36061;48.116;11.612;2023-03-01T02:13:41;15.87;;;9.37;;
50161;SDS011;36061;48.116;11.612;2023-03-01T02:16:12;14.73;;;8.20;;
50161;SDS011;36061;48.116;11.612;2023-03-01T02:18:41;13.00;;;7.83;;
50161;SDS011;36061;48.116;11.612;2023-03-01T02:21:13;15.30;;;9.20;;
50161;SDS011;36061;48.116;11.612;2023-03-01T02:23:53;12.93;;;8.30;;
50161;SDS011;36061;48.116;11.612;2023-03-01T02:26:23;11.43;;;7.60;;
50161;SDS011;36061;48.116;11.612;2023-03-01T02:28:59;14.53;;;8.33;;
50161;SDS011;36061;48.116;11.612;2023-03-01T02:31:27;13.87;;;8.57;;
50161;SDS011;36061;48.116;11.612;2023-03-01T02:34:12;13.17;;;7.90;;
50161;SDS011;36061;48.116;11.612;2023-03-01T02:36:43;15.03;;;8.93;;
50161;SDS011;36061;48.116;11.612;2023-03-01T02:39:13;13.13;;;8.17;;
50161;SDS011;36061;48.116;11.612;2023-03-01T02:41:44;17.57;;;9.13;;
50161;SDS011;36061;48.116;11.612;2023-03-01T02:44:17;16.47;;;9.07;;
50161;SDS011;36061;48.116;11.612;2023-03-01T02:46:46;14.30;;;8.17;;
50161;SDS011;36061;48.116;11.612;2023-03-01T02:49:19;14.33;;;8.03;;
50161;SDS011;36061;48.116;11.612;2023-03-01T02:54:50;14.53;;;8.47;;
50161;SDS011;36061;48.116;11.612;2023-03-01T02:57:22;15.10;;;8.80;;
50161;SDS011;36061;48.116;11.612;2023-03-01T02:59:54;13.30;;;8.57;;
50161;SDS011;36061;48.116;11.612;2023-03-01T03:02:23;14.83;;;8.80;;
50161;SDS011;36061;48.116;11.612;2023-03-01T03:05:04;13.73;;;7.57;;
50161;SDS011;36061;48.116;11.612;2023-03-01T03:07:34;16.17;;;9.17;;
50161;SDS011;36061;48.116;11.612;2023-03-01T03:10:03;15.27;;;8.93;;
50161;SDS011;36061;48.116;11.612;2023-03-01T03:12:32;14.17;;;8.67;;
50161;SDS011;36061;48.116;11.612;2023-03-01T03:15:01;14.33;;;9.20;;
50161;SDS011;36061;48.116;11.612;2023-03-01T03:17:34;13.70;;;9.43;;
50161;SDS011;36061;48.116;11.612;2023-03-01T03:20:01;14.77;;;8.47;;
50161;SDS011;36061;48.116;11.612;2023-03-01T03:22:30;15.13;;;8.10;;
50161;SDS011;36061;48.116;11.612;2023-03-01T03:24:59;16.80;;;9.60;;
50161;SDS011;36061;48.116;11.612;2023-03-01T03:27:27;12.50;;;8.00;;
50161;SDS011;36061;48.116;11.612;2023-03-01T03:29:54;14.60;;;8.63;;
50161;SDS011;36061;48.116;11.612;2023-03-01T03:32:23;13.57;;;7.83;;
50161;SDS011;36061;48.116;11.612;2023-03-01T03:34:50;13.80;;;8.77;;
50161;SDS011;36061;48.116;11.612;2023-03-01T03:37:17;14.40;;;8.73;;
50161;SDS011;36061;48.116;11.612;2023-03-01T03:39:58;13.93;;;8.43;;
50161;SDS011;36061;48.116;11.612;2023-03-01T03:42:26;11.80;;;7.50;;
50161;SDS011;36061;48.116;11.612;2023-03-01T03:44:53;14.50;;;9.00;;
50161;SDS011;36061;48.116;11.612;2023-03-01T03:47:20;14.70;;;9.20;;
50161;SDS011;36061;48.116;11.612;2023-03-01T03:49:49;15.77;;;8.87;;
50161;SDS011;36061;48.116;11.612;2023-03-01T03:52:16;13.10;;;8.00;;
50161;SDS011;36061;48.116;11.612;2023-03-01T03:54:43;13.73;;;7.30;;
50161;SDS011;36061;48.116;11.612;2023-03-01T03:57:10;14.60;;;9.17;;
50161;SDS011;36061;48.116;11.612;2023-03-01T03:59:37;16.70;;;9.33;;
50161;SDS011;36061;48.116;11.612;2023-03-01T04:02:05;18.97;;;9.47;;
50161;SDS011;36061;48.116;11.612;2023-03-01T04:04:35;14.33;;;9.27;;
50161;SDS011;36061;48.116;11.612;2023-03-01T04:07:02;14.03;;;8.33;;
50161;SDS011;36061;48.116;11.612;2023-03-01T04:09:29;15.10;;;9.10;;
50161;SDS011;36061;48.116;11.612;2023-03-01T04:11:57;14.80;;;8.60;;
50161;SDS011;36061;48.116;11.612;2023-03-01T04:14:24;13.17;;;8.77;;
50161;SDS011;36061;48.116;11.612;2023-03-01T04:16:51;17.47;;;9.90;;
50161;SDS011;36061;48.116;11.612;2023-03-01T04:19:18;14.60;;;8.53;;
50161;SDS011;36061;48.116;11.612;2023-03-01T04:21:47;15.93;;;9.03;;
50161;SDS011;36061;48.116;11.612;2023-03-01T04:24:14;13.07;;;8.80;;
50161;SDS011;36061;48.116;11.612;2023-03-01T04:26:41;14.17;;;9.43;;
50161;SDS011;36061;48.116;11.612;2023-03-01T04:29:09;16.90;;;9.07;;
50161;SDS011;36061;48.116;11.612;2023-03-01T04:31:36;14.17;;;8.70;;
50161;SDS011;36061;48.116;11.612;2023-03-01T04:34:03;14.97;;;9.47;;
50161;SDS011;36061;48.116;11.612;2023-03-01T04:36:30;15.50;;;8.73;;
50161;SDS011;36061;48.116;11.612;2023-03-01T04:39:02;16.90;;;8.80;;
50161;SDS011;36061;48.116;11.612;2023-03-01T04:41:37;16.20;;;8.93;;
50161;SDS011;36061;48.116;11.612;2023-03-01T04:44:05;19.23;;;9.83;;
50161;SDS011;36061;48.116;11.612;2023-03-01T04:46:34;15.87;;;9.47;;
50161;SDS011;36061;48.116;11.612;2023-03-01T04:49:02;14.43;;;8.93;;
50161;SDS011;36061;48.116;11.612;2023-03-01T04:51:30;17.40;;;8.83;;
50161;SDS011;36061;48.116;11.612;2023-03-01T04:53:58;14.60;;;8.67;;
50161;SDS011;36061;48.116;11.612;2023-03-01T04:56:27;17.10;;;9.60;;
50161;SDS011;36061;48.116;11.612;2023-03-01T04:58:54;13.80;;;8.50;;
50161;SDS011;36061;48.116;11.612;2023-03-01T05:01:21;15.60;;;8.93;;
50161;SDS011;36061;48.116;11.612;2023-03-01T05:03:49;15.67;;;9.53;;
50161;SDS011;36061;48.116;11.612;2023-03-01T05:06:18;14.80;;;9.03;;
50161;SDS011;36061;48.116;11.612;2023-03-01T05:08:46;17.43;;;9.50;;
50161;SDS011;36061;48.116;11.612;2023-03-01T05:11:13;14.70;;;8.93;;
50161;SDS011;36061;48.116;11.612;2023-03-01T05:13:42;13.20;;;8.37;;
50161;SDS011;36061;48.116;11.612;2023-03-01T05:16:09;14.40;;;9.03;;
50161;SDS011;36061;48.116;11.612;2023-03-01T05:18:37;16.77;;;9.03;;
50161;SDS011;36061;48.116;11.612;2023-03-01T05:21:05;16.57;;;9.30;;
50161;SDS011;36061;48.116;11.612;2023-03-01T05:23:34;13.07;;;9.20;;
50161;SDS011;36061;48.116;11.612;2023-03-01T05:26:01;13.80;;;8.33;;
50161;SDS011;36061;48.116;11.612;2023-03-01T05:28:31;19.73;;;9.70;;
50161;SDS011;36061;48.116;11.612;2023-03-01T05:31:00;12.83;;;8.53;;
50161;SDS011;36061;48.116;11.612;2023-03-01T05:33:27;12.73;;;8.17;;
50161;SDS011;36061;48.116;11.612;2023-03-01T05:35:54;17.07;;;9.47;;
50161;SDS011;36061;48.116;11.612;2023-03-01T05:38:26;15.53;;;9.27;;
50161;SDS011;36061;48.116;11.612;2023-03-01T05:40:53;14.87;;;9.00;;
50161;SDS011;36061;48.116;11.612;2023-03-01T05:43:20;12.83;;;7.97;;
50161;SDS011;36061;48.116;11.612;2023-03-01T05:45:47;16.27;;;9.63;;
50161;SDS011;36061;48.116;11.612;2023-03-01T05:48:16;16.90;;;9.63;;
50161;SDS011;36061;48.116;11.612;2023-03-01T05:50:44;15.40;;;10.30;;
50161;SDS011;36061;48.116;11.612;2023-03-01T05:53:13;15.53;;;8.43;;
50161;SDS011;36061;48.116;11.612;2023-03-01T05:55:41;12.07;;;8.67;;
50161;SDS011;36061;48.116;11.612;2023-03-01T05:58:10;12.20;;;7.83;;
50161;SDS011;36061;48.116;11.612;2023-03-01T06:00:39;15.03;;;8.40;;
50161;SDS011;36061;48.116;11.612;2023-03-01T06:03:08;16.03;;;8.80;;
50161;SDS011;36061;48.116;11.612;2023-03-01T06:05:38;16.20;;;9.50;;
50161;SDS011;36061;48.116;11.612;2023-03-01T06:08:06;15.77;;;9.37;;
50161;SDS011;36061;48.116;11.612;2023-03-01T06:10:35;13.43;;;8.90;;
50161;SDS011;36061;48.116;11.612;2023-03-01T06:13:03;16.53;;;9.00;;
50161;SDS011;36061;48.116;11.612;2023-03-01T06:15:30;16.07;;;9.63;;
50161;SDS011;36061;48.116;11.612;2023-03-01T06:17:57;18.47;;;10.00;;
50161;SDS011;36061;48.116;11.612;2023-03-01T06:20:25;14.73;;;7.77;;
50161;SDS011;36061;48.116;11.612;2023-03-01T06:23:04;17.10;;;9.53;;
50161;SDS011;36061;48.116;11.612;2023-03-01T06:25:32;15.87;;;9.17;;
50161;SDS011;36061;48.116;11.612;2023-03-01T06:27:59;16.30;;;9.40;;
50161;SDS011;36061;48.116;11.612;2023-03-01T06:30:27;16.60;;;9.47;;
50161;SDS011;36061;48.116;11.612;2023-03-01T06:32:54;19.53;;;9.73;;
50161;SDS011;36061;48.116;11.612;2023-03-01T06:35:26;15.97;;;9.13;;
50161;SDS011;36061;48.116;11.612;2023-03-01T06:37:55;19.67;;;9.90;;
50161;SDS011;36061;48.116;11.612;2023-03-01T06:40:24;17.00;;;9.57;;
50161;SDS011;36061;48.116;11.612;2023-03-01T06:42:51;15.03;;;8.73;;
50161;SDS011;36061;48.116;11.612;2023-03-01T06:45:19;16.50;;;9.73;;
50161;SDS011;36061;48.116;11.612;2023-03-01T06:47:47;18.03;;;9.73;;
50161;SDS011;36061;48.116;11.612;2023-03-01T06:50:15;16.10;;;8.60;;
50161;SDS011;36061;48.116;11.612;2023-03-01T06:52:43;14.23;;;8.20;;
50161;SDS011;36061;48.116;11.612;2023-03-01T06:55:11;14.20;;;9.23;;
50161;SDS011;36061;48.116;11.612;2023-03-01T06:57:40;18.30;;;9.70;;
50161;SDS011;36061;48.116;11.612;2023-03-01T07:00:08;15.23;;;9.23;;
50161;SDS011;36061;48.116;11.612;2023-03-01T07:02:36;16.93;;;9.20;;
50161;SDS011;36061;48.116;11.612;2023-03-01T07:05:04;16.27;;;8.87;;
50161;SDS011;36061;48.116;11.612;2023-03-01T07:07:31;15.60;;;9.30;;
50161;SDS011;36061;48.116;11.612;2023-03-01T07:09:58;14.57;;;9.47;;
50161;SDS011;36061;48.116;11.612;2023-03-01T07:12:25;15.43;;;9.20;;
50161;SDS011;36061;48.116;11.612;2023-03-01T07:14:54;20.70;;;9.90;;
50161;SDS011;36061;48.116;11.612;2023-03-01T07:17:21;15.20;;;9.70;;
50161;SDS011;36061;48.116;11.612;2023-03-01T07:19:48;15.17;;;8.83;;
50161;SDS011;36061;48.116;11.612;2023-03-01T07:22:16;14.70;;;9.37;;
50161;SDS011;36061;48.116;11.612;2023-03-01T07:24:43;16.67;;;10.53;;
50161;SDS011;36061;48.116;11.612;2023-03-01T07:27:10;17.83;;;9.80;;
50161;SDS011;36061;48.116;11.612;2023-03-01T07:29:37;14.87;;;8.40;;
50161;SDS011;36061;48.116;11.612;2023-03-01T07:32:06;17.77;;;9.83;;
50161;SDS011;36061;48.116;11.612;2023-03-01T07:34:33;17.33;;;10.07;;
50161;SDS011;36061;48.116;11.612;2023-03-01T07:37:00;17.70;;;8.80;;
50161;SDS011;36061;48.116;11.612;2023-03-01T07:39:28;17.47;;;10.63;;
50161;SDS011;36061;48.116;11.612;2023-03-01T07:41:55;18.03;;;10.03;;
50161;SDS011;36061;48.116;11.612;2023-03-01T07:44:22;15.73;;;9.27;;
50161;SDS011;36061;48.116;11.612;2023-03-01T07:46:49;19.63;;;10.30;;
50161;SDS011;36061;48.116;11.612;2023-03-01T07:49:22;15.27;;;9.80;;
50161;SDS011;36061;48.116;11.612;2023-03-01T07:51:51;16.43;;;9.87;;
50161;SDS011;36061;48.116;11.612;2023-03-01T07:54:19;19.20;;;10.27;;
50161;SDS011;36061;48.116;11.612;2023-03-01T07:56:46;18.87;;;9.27;;
50161;SDS011;36061;48.116;11.612;2023-03-01T08:03:26;20.23;;;9.27;;
50161;SDS011;36061;48.116;11.612;2023-03-01T08:05:54;21.50;;;8.93;;
50161;SDS011;36061;48.116;11.612;2023-03-01T08:08:21;18.27;;;10.43;;
50161;SDS011;36061;48.116;11.612;2023-03-01T08:10:49;16.00;;;9.97;;
50161;SDS011;36061;48.116;11.612;2023-03-01T08:13:16;20.47;;;10.23;;
50161;SDS011;36061;48.116;11.612;2023-03-01T08:15:47;16.47;;;9.80;;
50161;SDS011;36061;48.116;11.612;2023-03-01T08:18:15;16.80;;;9.77;;
50161;SDS011;36061;48.116;11.612;2023-03-01T08:20:42;14.00;;;9.10;;
50161;SDS011;36061;48.116;11.612;2023-03-01T08:23:11;15.57;;;9.97;;
50161;SDS011;36061;48.116;11.612;2023-03-01T08:25:38;17.50;;;9.73;;
50161;SDS011;36061;48.116;11.612;2023-03-01T08:28:06;15.13;;;8.53;;
50161;SDS011;36061;48.116;11.612;2023-03-01T08:30:33;17.90;;;10.37;;
50161;SDS011;36061;48.116;11.612;2023-03-01T08:33:01;16.17;;;8.13;;
50161;SDS011;36061;48.116;11.612;2023-03-01T08:35:28;17.80;;;10.40;;
50161;SDS011;36061;48.116;11.612;2023-03-01T08:37:55;19.20;;;10.00;;
50161;SDS011;36061;48.116;11.612;2023-03-01T08:40:24;28.00;;;10.73;;
50161;SDS011;36061;48.116;11.612;2023-03-01T08:42:51;19.40;;;10.23;;
50161;SDS011;36061;48.116;11.612;2023-03-01T08:45:18;17.97;;;10.27;;
50161;SDS011;36061;48.116;11.612;2023-03-01T08:47:46;18.20;;;9.53;;
50161;SDS011;36061;48.116;11.612;2023-03-01T08:50:13;21.77;;;10.67;;
50161;SDS011;36061;48.116;11.612;2023-03-01T08:52:40;19.70;;;10.60;;
50161;SDS011;36061;48.116;11.612;2023-03-01T08:55:07;19.90;;;10.10;;
50161;SDS011;36061;48.116;11.612;2023-03-01T08:57:37;15.53;;;9.27;;
50161;SDS011;36061;48.116;11.612;2023-03-01T09:00:04;18.33;;;9.70;;
50161;SDS011;36061;48.116;11.612;2023-03-01T09:02:34;16.20;;;10.00;;
50161;SDS011;36061;48.116;11.612;2023-03-01T09:05:05;15.73;;;8.87;;
50161;SDS011;36061;48.116;11.612;2023-03-01T09:07:33;20.30;;;9.80;;
50161;SDS011;36061;48.116;11.612;2023-03-01T09:10:00;17.13;;;9.83;;
50161;SDS011;36061;48.116;11.612;2023-03-01T09:12:27;17.97;;;9.63;;
50161;SDS011;36061;48.116;11.612;2023-03-01T09:14:56;18.57;;;10.10;;
50161;SDS011;36061;48.116;11.612;2023-03-01T09:17:23;16.07;;;9.70;;
50161;SDS011;36061;48.116;11.612;2023-03-01T09:19:50;17.93;;;10.27;;
50161;SDS011;36061;48.116;11.612;2023-03-01T09:22:17;18.50;;;9.40;;
50161;SDS011;36061;48.116;11.612;2023-03-01T09:24:44;16.33;;;9.73;;
50161;SDS011;36061;48.116;11.612;2023-03-01T09:27:12;22.33;;;11.13;;
50161;SDS011;36061;48.116;11.612;2023-03-01T09:29:39;18.73;;;10.63;;
50161;SDS011;36061;48.116;11.612;2023-03-01T09:32:08;20.70;;;10.73;;
50161;SDS011;36061;48.116;11.612;2023-03-01T09:34:35;16.97;;;9.67;;
50161;SDS011;36061;48.116;11.612;2023-03-01T09:37:24;16.90;;;9.80;;
50161;SDS011;36061;48.116;11.612;2023-03-01T09:39:51;16.67;;;9.13;;
50161;SDS011;36061;48.116;11.612;2023-03-01T09:42:18;16.97;;;10.20;;
50161;SDS011;36061;48.116;11.612;2023-03-01T09:44:46;19.23;;;10.77;;
50161;SDS011;36061;48.116;11.612;2023-03-01T09:47:19;16.70;;;10.37;;
50161;SDS011;36061;48.116;11.612;2023-03-01T09:49:52;17.23;;;9.20;;
50161;SDS011;36061;48.116;11.612;2023-03-01T09:52:26;20.03;;;10.00;;
50161;SDS011;36061;48.116;11.612;2023-03-01T09:54:59;17.57;;;10.17;;
50161;SDS011;36061;48.116;11.612;2023-03-01T09:57:29;21.60;;;11.33;;
50161;SDS011;36061;48.116;11.612;2023-03-01T10:00:03;16.83;;;9.47;;
50161;SDS011;36061;48.116;11.612;2023-03-01T10:02:45;19.57;;;10.07;;
50161;SDS011;36061;48.116;11.612;2023-03-01T10:05:21;20.90;;;10.97;;
50161;SDS011;36061;48.116;11.612;2023-03-01T10:08:03;19.93;;;10.73;;
50161;SDS011;36061;48.116;11.612;2023-03-01T10:10:46;17.67;;;10.90;;
50161;SDS011;36061;48.116;11.612;2023-03-01T10:13:15;20.90;;;9.77;;
50161;SDS011;36061;48.116;11.612;2023-03-01T10:15:47;19.23;;;10.10;;
50161;SDS011;36061;48.116;11.612;2023-03-01T10:18:22;15.53;;;9.87;;
50161;SDS011;36061;48.116;11.612;2023-03-01T10:20:52;16.60;;;9.43;;
50161;SDS011;36061;48.116;11.612;2023-03-01T10:23:22;17.73;;;10.57;;
50161;SDS011;36061;48.116;11.612;2023-03-01T10:25:57;18.90;;;10.47;;
50161;SDS011;36061;48.116;11.612;2023-03-01T10:28:43;24.47;;;10.50;;
50161;SDS011;36061;48.116;11.612;2023-03-01T10:31:18;20.17;;;11.30;;
50161;SDS011;36061;48.116;11.612;2023-03-01T10:33:54;20.03;;;11.33;;
50161;SDS011;36061;48.116;11.612;2023-03-01T10:36:24;22.73;;;11.27;;
50161;SDS011;36061;48.116;11.612;2023-03-01T10:38:52;18.97;;;9.93;;
50161;SDS011;36061;48.116;11.612;2023-03-01T10:41:23;17.53;;;11.27;;
50161;SDS011;36061;48.116;11.612;2023-03-01T10:43:53;19.13;;;11.20;;
50161;SDS011;36061;48.116;11.612;2023-03-01T10:46:25;20.00;;;10.97;;
50161;SDS011;36061;48.116;11.612;2023-03-01T10:49:06;25.73;;;11.47;;
50161;SDS011;36061;48.116;11.612;2023-03-01T10:51:38;17.77;;;10.20;;
50161;SDS011;36061;48.116;11.612;2023-03-01T10:54:13;22.57;;;10.57;;
50161;SDS011;36061;48.116;11.612;2023-03-01T10:56:46;20.23;;;10.47;;
50161;SDS011;36061;48.116;11.612;2023-03-01T10:59:21;17.43;;;10.13;;
50161;SDS011;36061;48.116;11.612;2023-03-01T11:02:03;19.10;;;11.20;;
50161;SDS011;36061;48.116;11.612;2023-03-01T11:04:47;21.30;;;11.40;;
50161;SDS011;36061;48.116;11.612;2023-03-01T11:07:24;16.50;;;10.43;;
50161;SDS011;36061;48.116;11.612;2023-03-01T11:09:51;17.93;;;11.00;;
50161;SDS011;36061;48.116;11.612;2023-03-01T11:12:19;24.70;;;11.83;;
50161;SDS011;36061;48.116;11.612;2023-03-01T11:14:48;17.37;;;10.03;;
50161;SDS011;36061;48.116;11.612;2023-03-01T11:17:23;18.10;;;11.33;;
50161;SDS011;36061;48.116;11.612;2023-03-01T11:20:04;18.47;;;11.70;;
50161;SDS011;36061;48.116;11.612;2023-03-01T11:22:43;17.93;;;11.20;;
50161;SDS011;36061;48.116;11.612;2023-03-01T11:25:13;17.03;;;11.60;;
50161;SDS011;36061;48.116;11.612;2023-03-01T11:27:41;16.13;;;10.40;;
50161;SDS011;36061;48.116;11.612;2023-03-01T11:30:16;18.53;;;10.50;;
50161;SDS011;36061;48.116;11.612;2023-03-01T11:32:47;21.17;;;11.80;;
50161;SDS011;36061;48.116;11.612;2023-03-01T11:35:23;27.80;;;10.97;;
50161;SDS011;36061;48.116;11.612;2023-03-01T11:37:56;21.27;;;11.07;;
50161;SDS011;36061;48.116;11.612;2023-03-01T11:40:29;20.73;;;11.67;;
50161;SDS011;36061;48.116;11.612;2023-03-01T11:43:05;19.70;;;11.17;;
50161;SDS011;36061;48.116;11.612;2023-03-01T11:45:48;16.20;;;10.23;;
50161;SDS011;36061;48.116;11.612;2023-03-01T11:48:43;17.33;;;10.90;;
50161;SDS011;36061;48.116;11.612;2023-03-01T11:51:22;19.00;;;10.17;;
50161;SDS011;36061;48.116;11.612;2023-03-01T11:54:09;20.53;;;12.17;;
50161;SDS011;36061;48.116;11.612;2023-03-01T11:56:45;20.27;;;11.67;;
50161;SDS011;36061;48.116;11.612;2023-03-01T11:59:20;19.80;;;11.23;;
50161;SDS011;36061;48.116;11.612;2023-03-01T12:02:17;17.97;;;9.43;;
50161;SDS011;36061;48.116;11.612;2023-03-01T12:05:08;16.83;;;10.40;;
50161;SDS011;36061;48.116;11.612;2023-03-01T12:07:51;18.27;;;11.00;;
50161;SDS011;36061;48.116;11.612;2023-03-01T12:10:26;21.10;;;12.27;;
50161;SDS011;36061;48.116;11.612;2023-03-01T12:12:58;21.63;;;12.20;;
50161;SDS011;36061;48.116;11.612;2023-03-01T12:15:45;17.90;;;11.30;;
50161;SDS011;36061;48.116;11.612;2023-03-01T12:18:30;22.03;;;11.10;;
50161;SDS011;36061;48.116;11.612;2023-03-01T12:21:11;18.93;;;11.00;;
50161;SDS011;36061;48.116;11.612;2023-03-01T12:24:08;29.53;;;11.53;;
50161;SDS011;36061;48.116;11.612;2023-03-01T12:26:56;19.00;;;11.23;;
50161;SDS011;36061;48.116;11.612;2023-03-01T12:29:34;22.07;;;11.03;;
50161;SDS011;36061;48.116;11.612;2023-03-01T12:32:15;20.07;;;10.80;;
50161;SDS011;36061;48.116;11.612;2023-03-01T12:37:50;18.90;;;10.77;;
50161;SDS011;36061;48.116;11.612;2023-03-01T12:40:31;19.03;;;10.97;;
50161;SDS011;36061;48.116;11.612;2023-03-01T12:43:12;19.30;;;11.17;;
50161;SDS011;36061;48.116;11.612;2023-03-01T12:45:59;21.87;;;11.47;;
50161;SDS011;36061;48.116;11.612;2023-03-01T12:48:43;18.63;;;11.73;;
50161;SDS011;36061;48.116;11.612;2023-03-01T12:51:18;17.67;;;10.97;;
50161;SDS011;36061;48.116;11.612;2023-03-01T12:53:50;21.03;;;11.57;;
50161;SDS011;36061;48.116;11.612;2023-03-01T12:56:21;20.00;;;11.07;;
50161;SDS011;36061;48.116;11.612;2023-03-01T12:58:52;18.43;;;11.13;;
50161;SDS011;36061;48.116;11.612;2023-03-01T13:01:29;24.23;;;11.87;;
50161;SDS011;36061;48.116;11.612;2023-03-01T13:04:17;22.87;;;11.53;;
50161;SDS011;36061;48.116;11.612;2023-03-01T13:07:01;18.90;;;11.30;;
50161;SDS011;36061;48.116;11.612;2023-03-01T13:09:43;18.57;;;11.37;;
50161;SDS011;36061;48.116;11.612;2023-03-01T13:15:29;18.70;;;10.97;;
50161;SDS011;36061;48.116;11.612;2023-03-01T13:17:58;18.90;;;12.47;;
50161;SDS011;36061;48.116;11.612;2023-03-01T13:20:27;21.40;;;11.80;;
50161;SDS011;36061;48.116;11.612;2023-03-01T13:23:00;20.53;;;12.60;;
50161;SDS011;36061;48.116;11.612;2023-03-01T13:28:45;17.60;;;10.53;;
50161;SDS011;36061;48.116;11.612;2023-03-01T13:37:17;18.57;;;10.93;;
50161;SDS011;36061;48.116;11.612;2023-03-01T13:39:51;21.97;;;11.60;;
50161;SDS011;36061;48.116;11.612;2023-03-01T13:42:35;18.00;;;11.53;;
50161;SDS011;36061;48.116;11.612;2023-03-01T13:48:00;18.97;;;11.23;;
50161;SDS011;36061;48.116;11.612;2023-03-01T13:50:33;20.47;;;11.60;;
50161;SDS011;36061;48.116;11.612;2023-03-01T13:53:04;17.43;;;11.53;;
50161;SDS011;36061;48.116;11.612;2023-03-01T13:55:37;19.53;;;10.70;;
50161;SDS011;36061;48.116;11.612;2023-03-01T13:58:15;18.40;;;11.40;;
50161;SDS011;36061;48.116;11.612;2023-03-01T14:00:54;25.38;;;14.82;;
50161;SDS011;36061;48.116;11.612;2023-03-01T14:03:23;22.83;;;13.33;;
50161;SDS011;36061;48.116;11.612;2023-03-01T14:05:58;20.47;;;12.77;;
50161;SDS011;36061;48.116;11.612;2023-03-01T14:08:28;21.67;;;12.33;;
50161;SDS011;36061;48.116;11.612;2023-03-01T14:11:00;23.07;;;12.80;;
50161;SDS011;36061;48.116;11.612;2023-03-01T14:16:49;26.93;;;12.30;;
50161;SDS011;36061;48.116;11.612;2023-03-01T14:19:25;22.70;;;11.87;;
50161;SDS011;36061;48.116;11.612;2023-03-01T14:22:00;23.07;;;12.10;;
50161;SDS011;36061;48.116;11.612;2023-03-01T14:24:33;19.80;;;11.37;;
50161;SDS011;36061;48.116;11.612;2023-03-01T14:27:09;18.33;;;11.17;;
50161;SDS011;36061;48.116;11.612;2023-03-01T14:29:38;17.23;;;10.97;;
50161;SDS011;36061;48.116;11.612;2023-03-01T14:32:11;18.77;;;12.10;;
50161;SDS011;36061;48.116;11.612;2023-03-01T14:34:44;19.47;;;10.83;;
50161;SDS011;36061;48.116;11.612;2023-03-01T14:37:18;21.37;;;11.40;;
50161;SDS011;36061;48.116;11.612;2023-03-01T14:39:47;21.43;;;11.67;;
50161;SDS011;36061;48.116;11.612;2023-03-01T14:42:15;16.37;;;10.60;;
50161;SDS011;36061;48.116;11.612;2023-03-01T14:44:43;18.30;;;10.70;;
50161;SDS011;36061;48.116;11.612;2023-03-01T14:47:15;21.63;;;11.47;;
50161;SDS011;36061;48.116;11.612;2023-03-01T14:49:50;20.90;;;10.87;;
50161;SDS011;36061;48.116;11.612;2023-03-01T14:52:25;20.20;;;11.40;;
50161;SDS011;36061;48.116;11.612;2023-03-01T14:54:59;19.93;;;11.00;;
50161;SDS011;36061;48.116;11.612;2023-03-01T14:57:28;20.37;;;11.77;;
50161;SDS011;36061;48.116;11.612;2023-03-01T14:59:57;20.73;;;11.13;;
50161;SDS011;36061;48.116;11.612;2023-03-01T15:02:31;20.85;;;12.80;;
50161;SDS011;36061;48.116;11.612;2023-03-01T15:05:00;15.60;;;10.60;;
50161;SDS011;36061;48.116;11.612;2023-03-01T15:07:30;16.17;;;10.80;;